Time;durP1;ratioP1;P1;durP2;ratioP2;P2;SDS_P1;SDS_P2;PMS_P1;PMS_P2;Temp;Humidity;BMP_temperature;BMP_pressure;BME280_temperature;BME280_humidity;BME280_pressure;Samples;Min_cycle;Max_cycle;Signal;HPM_P1;HPM_P2
2020/12/04 00:00:15;;;;;;;92.42;49.48;;;;;;;1.91;74.19;99208.75;126751;1098;23388;-72
2020/12/04 00:03:00;;;;;;;94.72;53.78;;;;;;;1.90;74.02;99209.73;126737;1099;23346;-72
2020/12/04 00:05:28;;;;;;;100.15;53.73;;;;;;;1.87;74.00;99204.70;126757;1099;23318;-72
2020/12/04 00:07:57;;;;;;;108.07;57.55;;;;;;;1.86;74.16;99201.18;126754;1098;23382;-72
2020/12/04 00:10:25;;;;;;;105.80;56.67;;;;;;;1.85;73.98;99191.41;126725;1099;23399;-72
2020/12/04 00:12:53;;;;;;;102.87;55.23;;;;;;;1.86;74.17;99190.42;126696;1098;23571;-72
2020/12/04 00:15:22;;;;;;;88.25;53.45;;;;;;;1.84;74.27;99187.05;126699;1098;23326;-73
2020/12/04 00:17:50;;;;;;;89.28;52.40;;;;;;;1.87;73.97;99173.27;126730;1099;23385;-72
2020/12/04 00:20:19;;;;;;;90.22;51.35;;;;;;;1.88;74.28;99174.09;126667;1098;23526;-71
2020/12/04 00:22:47;;;;;;;93.43;52.70;;;;;;;1.89;74.25;99173.11;126679;1098;23783;-72
2020/12/04 00:25:15;;;;;;;93.35;52.35;;;;;;;1.90;74.28;99172.95;126732;1098;23328;-71
2020/12/04 00:27:44;;;;;;;89.28;51.63;;;;;;;1.91;74.20;99188.06;126787;1098;23587;-73
2020/12/04 00:30:12;;;;;;;91.00;52.13;;;;;;;1.90;74.36;99180.16;126698;1099;23409;-73
2020/12/04 00:32:40;;;;;;;92.27;53.87;;;;;;;1.89;74.10;99176.63;126714;1099;23388;-72
2020/12/04 00:35:14;;;;;;;103.95;55.05;;;;;;;1.92;74.26;99183.52;126713;1098;23428;-71
2020/12/04 00:37:46;;;;;;;97.25;52.73;;;;;;;1.91;74.11;99171.09;126664;1098;27688;-73
2020/12/04 00:40:14;;;;;;;104.27;52.03;;;;;;;1.91;74.14;99168.41;126639;1098;23959;-71
2020/12/04 00:42:46;;;;;;;103.87;53.10;;;;;;;1.91;74.19;99154.96;126693;1099;23332;-73
2020/12/04 00:45:15;;;;;;;92.02;48.65;;;;;;;1.92;74.11;99148.56;126663;1098;23423;-73
2020/12/04 00:47:44;;;;;;;106.45;51.28;;;;;;;1.93;74.23;99156.47;126680;1098;23325;-73
2020/12/04 00:50:12;;;;;;;83.33;45.48;;;;;;;1.95;74.29;99164.39;126668;1098;23540;-73
2020/12/04 00:52:41;;;;;;;75.92;45.95;;;;;;;1.95;74.01;99167.91;126692;1099;25156;-72
2020/12/04 00:55:11;;;;;;;87.70;45.65;;;;;;;1.95;74.11;99164.39;126753;1098;23385;-72
2020/12/04 00:57:39;;;;;;;84.70;45.73;;;;;;;1.95;74.17;99167.08;126712;1098;23395;-74
2020/12/04 01:00:08;;;;;;;73.27;42.43;;;;;;;1.94;73.98;99174.31;126708;1098;23393;-73
2020/12/04 01:02:36;;;;;;;69.13;40.30;;;;;;;1.92;73.95;99170.08;126733;1099;23421;-71
2020/12/04 01:05:05;;;;;;;69.10;41.77;;;;;;;1.92;73.86;99164.70;126690;1098;23324;-73
2020/12/04 01:07:34;;;;;;;71.82;39.58;;;;;;;1.92;73.99;99173.63;126624;1098;23393;-73
2020/12/04 01:10:03;;;;;;;71.92;40.58;;;;;;;1.91;74.14;99176.48;126690;1098;24519;-73
2020/12/04 01:12:32;;;;;;;65.87;37.90;;;;;;;1.92;73.98;99175.45;126722;1098;23377;-73
2020/12/04 01:15:00;;;;;;;67.67;38.73;;;;;;;1.90;73.77;99172.09;126752;1098;23327;-72
2020/12/04 01:17:28;;;;;;;66.60;41.13;;;;;;;1.91;73.90;99171.09;126775;1098;23479;-72
2020/12/04 01:19:56;;;;;;;69.50;39.90;;;;;;;1.92;74.01;99175.45;126737;1098;23394;-70
2020/12/04 01:22:24;;;;;;;73.75;41.53;;;;;;;1.91;74.02;99166.55;126773;1098;23431;-73
2020/12/04 01:24:53;;;;;;;70.08;39.08;;;;;;;1.92;74.05;99164.70;126746;1099;23397;-71
2020/12/04 01:27:21;;;;;;;63.55;38.02;;;;;;;1.94;74.16;99160.00;126730;1098;23331;-72
2020/12/04 01:29:49;;;;;;;67.70;39.20;;;;;;;1.97;74.08;99154.30;126722;1098;23460;-72
2020/12/04 01:32:17;;;;;;;68.72;39.90;;;;;;;1.97;73.95;99148.92;126698;1098;23481;-70
2020/12/04 01:34:46;;;;;;;62.10;36.70;;;;;;;1.97;73.69;99140.86;126654;1098;23421;-71
2020/12/04 01:37:14;;;;;;;67.85;38.63;;;;;;;1.97;73.76;99147.06;126759;1098;23346;-72
2020/12/04 01:39:42;;;;;;;50.70;29.18;;;;;;;1.97;73.68;99140.86;126626;1098;26468;-73
2020/12/04 01:42:10;;;;;;;68.70;37.60;;;;;;;1.98;73.75;99131.77;126734;1098;23346;-72
2020/12/04 01:44:39;;;;;;;59.85;35.00;;;;;;;1.99;73.83;99133.47;126783;1099;23345;-72
2020/12/04 01:47:07;;;;;;;66.47;36.28;;;;;;;1.99;73.65;99136.16;126738;1098;23489;-72
2020/12/04 01:49:36;;;;;;;64.33;34.90;;;;;;;2.00;73.69;99132.44;126717;1098;23321;-72
2020/12/04 01:52:04;;;;;;;59.00;35.73;;;;;;;2.00;73.66;99124.37;126777;1098;23359;-73
2020/12/04 01:54:33;;;;;;;61.13;34.37;;;;;;;2.02;73.65;99133.12;126696;1098;23538;-72
2020/12/04 01:57:02;;;;;;;52.65;30.23;;;;;;;2.03;73.63;99124.05;126722;1098;23376;-71
2020/12/04 01:59:30;;;;;;;50.03;29.65;;;;;;;2.02;73.60;99127.73;126658;1098;23358;-72
2020/12/04 02:02:28;;;;;;;57.65;33.28;;;;;;;2.01;73.67;99112.62;126675;1098;23336;-72
2020/12/04 02:04:57;;;;;;;57.75;34.23;;;;;;;2.03;73.47;99121.37;126191;1101;26671;-72
2020/12/04 02:07:54;;;;;;;60.92;34.40;;;;;;;2.07;73.78;99117.34;126175;1101;23559;-72
2020/12/04 02:10:38;;;;;;;52.08;31.52;;;;;;;2.06;73.78;99107.56;126158;1102;25876;-72
2020/12/04 02:13:07;;;;;;;60.92;35.48;;;;;;;2.07;73.40;99092.27;126185;1101;24920;-73
2020/12/04 02:15:36;;;;;;;64.32;35.15;;;;;;;2.06;73.49;99110.27;126204;1101;23417;-73
2020/12/04 02:18:06;;;;;;;58.25;35.58;;;;;;;2.07;73.40;99111.95;126175;1101;23607;-73
2020/12/04 02:20:35;;;;;;;52.95;31.90;;;;;;;2.09;73.60;99101.87;126252;1101;26880;-73
2020/12/04 02:23:03;;;;;;;54.15;32.90;;;;;;;2.10;73.77;99108.92;126245;1101;27287;-72
2020/12/04 02:25:31;;;;;;;56.20;35.40;;;;;;;2.11;73.40;99097.13;126213;1101;23404;-72
2020/12/04 02:28:00;;;;;;;60.28;36.08;;;;;;;2.13;73.59;99096.98;126215;1101;23405;-72
2020/12/04 02:30:33;;;;;;;61.53;32.95;;;;;;;2.14;73.58;99104.89;126183;1101;23362;-73
2020/12/04 02:33:03;;;;;;;66.53;37.90;;;;;;;2.15;73.30;99103.03;126202;1101;23414;-73
2020/12/04 02:35:31;;;;;;;59.33;35.43;;;;;;;2.16;73.48;99102.88;126158;1101;23354;-73
2020/12/04 02:37:59;;;;;;;61.88;35.30;;;;;;;2.17;73.51;99085.70;126180;1101;23355;-71
2020/12/04 02:40:27;;;;;;;58.75;34.25;;;;;;;2.18;73.49;99083.88;126185;1102;28164;-73
2020/12/04 02:42:56;;;;;;;55.30;31.30;;;;;;;2.18;73.44;99084.70;126607;1099;26823;-73
2020/12/04 02:45:24;;;;;;;60.80;33.60;;;;;;;2.19;73.48;99088.23;126765;1098;23423;-74
2020/12/04 02:47:52;;;;;;;53.55;32.15;;;;;;;2.19;73.39;99089.06;126591;1099;25066;-73
2020/12/04 02:50:20;;;;;;;58.00;33.90;;;;;;;2.17;73.46;99077.63;126730;1098;23346;-71
2020/12/04 02:52:48;;;;;;;56.95;33.02;;;;;;;2.17;73.16;99072.25;126756;1098;23321;-72
2020/12/04 02:55:16;;;;;;;56.48;34.03;;;;;;;2.18;73.43;99062.36;126735;1098;23473;-70
2020/12/04 02:57:45;;;;;;;54.30;30.88;;;;;;;2.17;73.47;99072.25;126752;1099;23435;-71
2020/12/04 03:00:13;;;;;;;51.88;31.20;;;;;;;2.16;73.18;99057.13;126686;1098;23427;-71
2020/12/04 03:02:41;;;;;;;57.43;32.50;;;;;;;2.16;73.30;99051.75;126770;1098;26379;-72
2020/12/04 03:05:10;;;;;;;48.70;30.25;;;;;;;2.17;73.35;99049.90;126767;1098;23909;-72
2020/12/04 03:07:39;;;;;;;57.50;33.18;;;;;;;2.17;73.45;99056.11;126681;1098;23376;-72
2020/12/04 03:10:08;;;;;;;50.52;29.15;;;;;;;2.19;73.25;99047.87;126732;1099;25192;-73
2020/12/04 03:12:37;;;;;;;53.17;32.57;;;;;;;2.20;73.31;99036.12;126681;1098;23533;-72
2020/12/04 03:15:07;;;;;;;57.63;33.50;;;;;;;2.20;73.45;99025.36;126722;1098;23533;-72
2020/12/04 03:17:35;;;;;;;51.95;31.93;;;;;;;2.22;73.71;99034.10;126609;1098;25160;-75
2020/12/04 03:20:05;;;;;;;58.38;32.45;;;;;;;2.25;73.34;99023.81;126665;1098;26805;-72
2020/12/04 03:22:33;;;;;;;56.05;32.48;;;;;;;2.29;73.55;99027.02;126790;1098;23542;-72
2020/12/04 03:25:01;;;;;;;50.37;29.40;;;;;;;2.31;73.45;99027.69;126700;1099;23328;-73
2020/12/04 03:27:30;;;;;;;55.48;30.80;;;;;;;2.32;73.21;99025.83;126670;1098;23393;-71
2020/12/04 03:29:58;;;;;;;46.45;28.45;;;;;;;2.32;72.97;99037.42;126658;1098;23428;-72
2020/12/04 03:32:26;;;;;;;57.75;32.10;;;;;;;2.31;73.09;99029.55;126760;1098;23325;-73
2020/12/04 03:34:55;;;;;;;49.18;29.27;;;;;;;2.31;73.19;99029.55;126767;1099;23325;-73
2020/12/04 03:37:27;;;;;;;50.45;29.75;;;;;;;2.30;73.35;99017.09;126732;1098;23402;-71
2020/12/04 03:39:55;;;;;;;53.28;30.02;;;;;;;2.30;73.32;99011.70;126704;1098;23579;-71
2020/12/04 03:42:23;;;;;;;54.55;31.30;;;;;;;2.30;73.20;99011.70;126611;1098;23530;-71
2020/12/04 03:44:51;;;;;;;52.88;32.40;;;;;;;2.32;73.29;99017.75;126713;1099;23339;-71
2020/12/04 03:47:19;;;;;;;53.57;28.70;;;;;;;2.32;73.38;99010.52;126659;1098;23331;-72
2020/12/04 03:49:48;;;;;;;49.45;29.57;;;;;;;2.34;73.39;99016.57;126744;1098;23394;-71
2020/12/04 03:52:20;;;;;;;52.78;29.60;;;;;;;2.35;73.19;99012.88;126662;1098;23379;-71
2020/12/04 03:54:48;;;;;;;51.20;29.35;;;;;;;2.37;73.35;99013.55;126686;1098;23466;-72
2020/12/04 03:57:17;;;;;;;61.20;32.65;;;;;;;2.40;73.47;99015.05;126714;1098;23369;-72
2020/12/04 03:59:45;;;;;;;67.10;35.60;;;;;;;2.40;73.06;99007.81;126707;1098;23432;-72
2020/12/04 04:02:13;;;;;;;97.15;39.15;;;;;;;2.41;73.34;99003.27;126730;1098;23347;-71
2020/12/04 04:04:41;;;;;;;69.58;34.45;;;;;;;2.41;73.11;98997.88;126638;1098;23314;-73
2020/12/04 04:07:09;;;;;;;84.45;36.33;;;;;;;2.41;73.13;99003.27;126713;1098;26808;-72
2020/12/04 04:09:38;;;;;;;102.82;39.50;;;;;;;2.41;73.22;98993.36;126753;1098;25071;-72
2020/12/04 04:12:06;;;;;;;116.22;42.78;;;;;;;2.40;73.11;98988.14;126697;1098;23436;-72
2020/12/04 04:14:34;;;;;;;55.33;29.87;;;;;;;2.39;73.21;98990.00;126718;1099;23522;-71
2020/12/04 04:17:03;;;;;;;107.65;43.68;;;;;;;2.40;73.18;98990.83;126753;1098;23383;-73
2020/12/04 04:19:31;;;;;;;74.75;34.92;;;;;;;2.41;73.25;98987.11;126710;1099;23379;-72
2020/12/04 04:21:59;;;;;;;84.77;36.13;;;;;;;2.41;73.05;98992.49;126710;1098;23322;-72
2020/12/04 04:24:27;;;;;;;64.95;32.45;;;;;;;2.40;73.08;99006.98;126712;1098;23382;-73
2020/12/04 04:26:56;;;;;;;103.53;43.13;;;;;;;2.38;73.14;98999.06;126673;1098;23327;-73
2020/12/04 04:29:24;;;;;;;82.77;36.10;;;;;;;2.38;73.22;98995.55;126662;1099;23427;-72
2020/12/04 04:31:53;;;;;;;85.47;36.58;;;;;;;2.40;73.41;98996.22;126715;1098;23384;-73
2020/12/04 04:34:21;;;;;;;98.50;41.85;;;;;;;2.42;73.29;98994.19;126314;1099;23332;-73
2020/12/04 04:36:50;;;;;;;63.23;33.75;;;;;;;2.44;73.30;98976.02;126682;1098;23403;-73
2020/12/04 04:39:18;;;;;;;66.90;33.73;;;;;;;2.43;73.23;98972.50;126655;1099;23438;-71
2020/12/04 04:41:55;;;;;;;57.03;30.25;;;;;;;2.42;73.03;98961.89;126740;1098;23499;-71
2020/12/04 04:44:23;;;;;;;85.10;39.90;;;;;;;2.42;73.17;98964.59;126671;1098;23325;-71
2020/12/04 04:47:12;;;;;;;80.30;36.25;;;;;;;2.42;73.32;98972.66;126770;1098;24978;-72
2020/12/04 04:49:47;;;;;;;86.80;39.73;;;;;;;2.43;72.94;98974.33;126764;1098;23324;-70
2020/12/04 04:52:17;;;;;;;60.65;28.57;;;;;;;2.43;73.65;98972.50;126666;1098;23322;-72
2020/12/04 04:54:48;;;;;;;66.97;34.08;;;;;;;2.42;73.23;98964.59;126702;1098;23337;-70
2020/12/04 04:57:23;;;;;;;100.13;38.90;;;;;;;2.43;73.42;98963.56;126844;1099;23328;-71
2020/12/04 04:59:54;;;;;;;120.33;45.57;;;;;;;2.43;73.19;98958.17;126677;1098;23536;-71
2020/12/04 05:02:24;;;;;;;91.45;37.20;;;;;;;2.42;73.23;98953.81;126743;1098;23333;-71
2020/12/04 05:04:54;;;;;;;76.43;35.37;;;;;;;2.42;73.27;98943.05;126687;1098;23385;-70
2020/12/04 05:07:34;;;;;;;63.85;31.50;;;;;;;2.39;73.50;98936.17;126828;1099;23501;-70
2020/12/04 05:10:20;;;;;;;65.92;30.97;;;;;;;2.39;73.09;98936.17;126758;1099;23530;-73
2020/12/04 05:13:07;;;;;;;114.65;42.48;;;;;;;2.38;73.08;98922.88;126676;1098;26434;-71
2020/12/04 05:15:37;;;;;;;82.15;35.98;;;;;;;2.37;73.70;98916.67;126828;1098;25195;-74
2020/12/04 05:18:13;;;;;;;91.85;39.30;;;;;;;2.38;73.36;98923.71;126710;1098;23363;-74
2020/12/04 05:20:53;;;;;;;88.60;35.35;;;;;;;2.40;73.15;98920.86;126724;1098;23332;-72
2020/12/04 05:23:24;;;;;;;71.72;30.70;;;;;;;2.40;73.26;98912.78;126693;1099;23344;-73
2020/12/04 05:25:55;;;;;;;81.12;37.63;;;;;;;2.41;73.53;98918.00;126612;1098;23331;-72
2020/12/04 05:28:27;;;;;;;89.20;40.20;;;;;;;2.42;73.39;98919.66;126754;1098;23392;-72
2020/12/04 05:31:08;;;;;;;86.55;37.75;;;;;;;2.45;73.51;98921.16;126759;1098;23459;-72
2020/12/04 05:33:44;;;;;;;74.25;32.98;;;;;;;2.47;73.52;98920.99;126702;1098;23470;-72
2020/12/04 05:36:27;;;;;;;102.70;39.78;;;;;;;2.49;73.53;98919.80;126677;1098;23390;-74
2020/12/04 05:38:57;;;;;;;103.53;42.33;;;;;;;2.49;73.49;98916.28;126698;1100;23488;-73
2020/12/04 05:41:26;;;;;;;101.42;41.98;;;;;;;2.50;73.57;98913.42;126682;1098;23530;-71
2020/12/04 05:43:54;;;;;;;123.02;47.80;;;;;;;2.52;73.57;98915.91;126763;1098;25245;-71
2020/12/04 05:46:26;;;;;;;67.10;31.45;;;;;;;2.54;73.63;98912.05;126778;1099;26555;-71
2020/12/04 05:49:05;;;;;;;78.80;37.85;;;;;;;2.57;73.62;98922.46;126744;1098;27784;-71
2020/12/04 05:51:37;;;;;;;74.80;35.48;;;;;;;2.59;73.63;98898.06;126792;1098;23343;-71
2020/12/04 05:54:07;;;;;;;85.10;36.58;;;;;;;2.60;73.59;98911.36;126728;1098;23425;-72
2020/12/04 05:56:39;;;;;;;92.70;39.97;;;;;;;2.62;73.52;98913.86;126805;1098;26408;-71
2020/12/04 05:59:10;;;;;;;71.22;35.23;;;;;;;2.63;73.63;98904.78;126713;1098;23328;-70
2020/12/04 06:01:45;;;;;;;118.53;48.50;;;;;;;2.68;73.57;98904.24;126759;1098;23366;-71
2020/12/04 06:04:18;;;;;;;84.55;39.40;;;;;;;2.70;73.75;98911.13;126673;1098;27726;-72
2020/12/04 06:06:49;;;;;;;96.57;39.45;;;;;;;2.74;73.64;98920.53;126739;1098;23392;-72
2020/12/04 06:09:21;;;;;;;111.97;44.05;;;;;;;2.77;73.54;98916.64;126426;1098;25086;-73
2020/12/04 06:11:50;;;;;;;;;;;;;;;2.78;73.17;98911.09;126603;1098;23362;-73
2020/12/04 06:14:22;;;;;;;89.83;34.67;;;;;;;2.78;73.56;98905.70;126706;1099;21567;-74
2020/12/04 06:17:12;;;;;;;72.15;33.25;;;;;;;2.79;73.22;98914.61;126358;1099;23441;-74
2020/12/04 06:19:43;;;;;;;87.25;40.88;;;;;;;2.81;73.50;98901.81;126706;1098;23399;-73
2020/12/04 06:22:19;;;;;;;114.22;51.45;;;;;;;2.83;73.21;98908.69;126765;1098;25129;-72
2020/12/04 06:24:54;;;;;;;149.23;72.80;;;;;;;2.84;73.33;98907.69;126684;1098;23528;-72
2020/12/04 06:27:45;;;;;;;115.67;52.50;;;;;;;2.88;73.32;98918.95;126799;1098;27504;-72
2020/12/04 06:30:16;;;;;;;96.40;38.10;;;;;;;2.90;73.14;98910.67;126743;1098;23327;-72
2020/12/04 06:32:51;;;;;;;72.42;37.42;;;;;;;2.90;73.28;98916.89;126401;1099;26845;-74
2020/12/04 06:35:42;;;;;;;92.90;37.90;;;;;;;2.94;73.15;98912.83;126769;1098;23366;-72
2020/12/04 06:38:33;;;;;;;71.55;30.80;;;;;;;2.94;73.38;98904.75;126697;1098;23349;-72
2020/12/04 06:41:26;;;;;;;95.75;41.05;;;;;;;2.95;72.94;98890.28;126695;1098;23366;-72
2020/12/04 06:43:56;;;;;;;;;;;;;;;2.96;72.98;98900.03;126740;1098;23495;-72
2020/12/04 06:46:28;;;;;;;74.50;31.73;;;;;;;2.97;72.94;98896.33;126643;1098;21557;-72
2020/12/04 06:49:11;;;;;;;169.13;62.33;;;;;;;3.01;73.08;98891.44;126753;1098;25541;-72
2020/12/04 06:51:40;;;;;;;85.05;37.67;;;;;;;3.02;72.95;98877.77;126756;1098;23437;-73
2020/12/04 06:54:09;;;;;;;64.70;32.20;;;;;;;3.04;73.02;98875.73;126776;1098;23346;-73
2020/12/04 06:56:37;;;;;;;82.92;42.13;;;;;;;3.04;72.69;98883.81;126680;1098;23318;-73
2020/12/04 06:59:06;;;;;;;173.97;64.32;;;;;;;3.04;72.87;98891.89;126772;1099;23419;-73
2020/12/04 07:01:34;;;;;;;192.30;70.80;;;;;;;3.04;72.81;98886.50;126688;1099;26494;-73
2020/12/04 07:04:05;;;;;;;196.02;79.12;;;;;;;3.05;72.88;98882.81;126712;1098;23422;-70
2020/12/04 07:06:34;;;;;;;175.97;57.67;;;;;;;3.08;72.91;98891.55;126738;1098;23421;-71
2020/12/04 07:09:03;;;;;;;93.55;39.42;;;;;;;3.09;72.94;98879.74;126662;1098;23428;-72
2020/12/04 07:11:32;;;;;;;70.47;31.77;;;;;;;3.10;72.80;98876.05;126695;1098;23344;-72
2020/12/04 07:14:01;;;;;;;78.60;34.92;;;;;;;3.13;73.08;98863.03;126687;1098;23318;-71
2020/12/04 07:16:30;;;;;;;83.42;34.13;;;;;;;3.16;72.91;98884.25;126333;1099;23364;-71
2020/12/04 07:18:58;;;;;;;52.25;26.82;;;;;;;3.20;72.83;98882.88;126735;1098;23374;-71
2020/12/04 07:21:27;;;;;;;63.85;30.55;;;;;;;3.24;72.88;98883.33;126801;1098;23339;-72
2020/12/04 07:23:56;;;;;;;42.62;20.97;;;;;;;3.28;72.86;98881.95;126486;1098;23333;-73
2020/12/04 07:26:25;;;;;;;55.80;28.25;;;;;;;3.33;72.77;98884.96;126459;1098;23324;-72
2020/12/04 07:28:53;;;;;;;59.27;27.62;;;;;;;3.37;72.95;98888.97;126543;1098;23333;-71
2020/12/04 07:31:22;;;;;;;35.90;19.00;;;;;;;3.42;72.48;98894.64;126796;1098;26779;-71
2020/12/04 07:33:59;;;;;;;36.10;21.75;;;;;;;3.46;72.72;98895.96;126708;1098;28133;-71
2020/12/04 07:36:29;;;;;;;67.87;39.48;;;;;;;3.55;72.79;98903.98;126695;1098;23330;-73
2020/12/04 07:39:01;;;;;;;52.17;27.30;;;;;;;3.64;73.00;98894.80;126693;1098;26918;-72
2020/12/04 07:41:36;;;;;;;61.20;28.43;;;;;;;3.70;72.54;98890.53;126734;1098;23566;-72
2020/12/04 07:44:10;;;;;;;66.72;30.08;;;;;;;3.74;72.58;98889.16;126795;1098;23353;-70
2020/12/04 07:46:39;;;;;;;54.45;25.77;;;;;;;3.75;72.08;98883.55;126739;1098;26465;-72
2020/12/04 07:49:16;;;;;;;47.50;25.08;;;;;;;3.77;72.15;98883.38;126757;1098;26947;-71
2020/12/04 07:51:45;;;;;;;41.70;21.75;;;;;;;3.82;72.39;98873.72;126666;1098;23460;-73
2020/12/04 07:54:22;;;;;;;36.17;20.20;;;;;;;3.85;72.15;98872.52;126733;1098;23336;-75
2020/12/04 07:56:54;;;;;;;55.75;27.25;;;;;;;3.88;72.12;98853.25;126710;1098;23363;-72
2020/12/04 07:59:29;;;;;;;43.87;23.45;;;;;;;3.91;72.10;98857.45;126761;1098;23390;-73
2020/12/04 08:02:04;;;;;;;47.03;24.98;;;;;;;3.93;71.95;98858.11;126743;1098;23320;-74
2020/12/04 08:04:35;;;;;;;44.77;22.55;;;;;;;3.97;71.85;98862.08;126799;1098;25075;-73
2020/12/04 08:07:12;;;;;;;42.05;20.50;;;;;;;3.98;71.97;98850.28;126729;1098;23427;-73
2020/12/04 08:09:45;;;;;;;47.33;24.50;;;;;;;4.02;71.73;98856.98;126550;1098;23371;-73
2020/12/04 08:12:23;;;;;;;45.90;26.50;;;;;;;4.06;71.63;98860.98;126743;1098;23444;-73
2020/12/04 08:14:54;;;;;;;46.75;22.32;;;;;;;4.10;71.59;98848.80;126823;1098;23522;-75
2020/12/04 08:17:26;;;;;;;39.67;21.95;;;;;;;4.15;71.42;98846.37;126710;1098;23497;-74
2020/12/04 08:19:55;;;;;;;40.67;23.73;;;;;;;4.21;71.38;98864.52;126756;1099;23371;-73
2020/12/04 08:22:33;;;;;;;47.40;23.73;;;;;;;4.26;71.26;98845.88;126734;1098;23341;-73
2020/12/04 08:25:06;;;;;;;35.75;21.70;;;;;;;4.28;71.49;98832.20;126606;1099;23400;-74
2020/12/04 08:27:45;;;;;;;36.70;22.73;;;;;;;4.32;70.99;98844.30;126652;1098;23436;-74
2020/12/04 08:30:17;;;;;;;40.50;23.07;;;;;;;4.35;71.34;98835.81;126778;1098;23540;-75
2020/12/04 08:33:01;;;;;;;34.10;18.67;;;;;;;4.40;71.19;98837.97;126945;1098;26792;-72
2020/12/04 08:35:32;;;;;;;38.88;21.90;;;;;;;4.43;71.26;98864.58;126854;1099;23523;-74
2020/12/04 08:38:12;;;;;;;32.13;18.15;;;;;;;4.45;70.81;98851.73;126735;1098;26845;-73
2020/12/04 08:40:47;;;;;;;37.35;20.68;;;;;;;4.45;70.78;98873.33;126698;1098;23333;-76
2020/12/04 08:43:18;;;;;;;37.90;22.13;;;;;;;4.42;70.45;98852.13;126510;1098;23331;-73
2020/12/04 08:45:50;;;;;;;31.82;19.17;;;;;;;4.42;70.81;98852.95;126575;1098;23422;-73
2020/12/04 08:48:26;;;;;;;33.00;18.90;;;;;;;4.42;70.75;98852.95;126675;1099;23383;-76
2020/12/04 08:50:58;;;;;;;36.77;19.65;;;;;;;4.44;70.98;98856.30;126756;1098;27114;-73
2020/12/04 08:53:27;;;;;;;33.85;20.05;;;;;;;4.45;70.36;98857.96;126587;1098;23351;-73
2020/12/04 08:56:00;;;;;;;39.35;22.52;;;;;;;4.45;70.98;98854.44;126711;1098;26782;-71
2020/12/04 08:58:32;;;;;;;31.05;20.17;;;;;;;4.49;70.88;98861.13;126701;1098;23442;-74
2020/12/04 09:01:03;;;;;;;36.58;21.93;;;;;;;4.52;70.74;98847.23;126639;1099;23336;-72
2020/12/04 09:03:32;;;;;;;39.13;25.87;;;;;;;4.56;70.88;98855.81;126532;1099;23328;-71
2020/12/04 09:06:01;;;;;;;35.47;22.03;;;;;;;4.57;70.23;98852.92;126782;1098;23905;-72
2020/12/04 09:08:29;;;;;;;49.83;23.05;;;;;;;4.61;70.81;98851.52;126685;1098;23365;-71
2020/12/04 09:10:58;;;;;;;34.78;22.02;;;;;;;4.65;70.52;98851.95;126710;1098;27090;-70
2020/12/04 09:13:26;;;;;;;31.75;21.68;;;;;;;4.68;69.97;98860.53;126694;1098;23423;-72
2020/12/04 09:15:54;;;;;;;36.40;19.32;;;;;;;4.72;70.63;98852.06;126686;1098;23394;-72
2020/12/04 09:18:23;;;;;;;36.55;21.10;;;;;;;4.74;70.53;98842.73;126681;1098;23380;-70
2020/12/04 09:20:51;;;;;;;38.33;22.13;;;;;;;4.78;70.35;98837.77;126746;1099;23463;-72
2020/12/04 09:23:20;;;;;;;28.53;18.43;;;;;;;4.81;69.93;98838.23;126713;1098;23377;-72
2020/12/04 09:25:49;;;;;;;34.13;21.63;;;;;;;4.83;70.28;98843.45;126842;1098;26804;-71
2020/12/04 09:28:19;;;;;;;32.13;20.75;;;;;;;4.87;70.20;98842.05;126597;1098;23346;-74
2020/12/04 09:30:47;;;;;;;30.20;19.77;;;;;;;4.91;69.93;98833.35;126530;1098;26439;-72
2020/12/04 09:33:15;;;;;;;35.17;16.23;;;;;;;4.98;69.99;98844.23;126684;1098;23330;-71
2020/12/04 09:35:44;;;;;;;33.48;19.60;;;;;;;5.03;70.19;98843.64;126651;1098;23533;-72
2020/12/04 09:38:12;;;;;;;30.57;19.70;;;;;;;5.05;69.61;98839.71;126711;1098;23780;-71
2020/12/04 09:40:40;;;;;;;26.85;16.93;;;;;;;5.10;69.86;98834.58;126688;1098;24669;-72
2020/12/04 09:43:09;;;;;;;32.42;21.07;;;;;;;5.16;70.12;98837.53;126685;1098;27844;-70
2020/12/04 09:45:37;;;;;;;34.90;21.60;;;;;;;5.21;69.65;98841.33;126742;1098;23382;-71
2020/12/04 09:48:06;;;;;;;34.57;18.97;;;;;;;5.25;69.87;98831.80;126734;1099;23382;-70
2020/12/04 09:50:34;;;;;;;26.17;16.33;;;;;;;5.28;69.56;98844.09;126679;1099;27951;-71
2020/12/04 09:53:03;;;;;;;30.52;19.40;;;;;;;5.28;69.28;98846.80;126738;1099;23328;-70
2020/12/04 09:55:31;;;;;;;31.82;19.07;;;;;;;5.26;69.16;98844.28;126511;1098;25069;-71
2020/12/04 09:57:59;;;;;;;36.20;24.45;;;;;;;5.29;69.06;98845.75;126671;1098;26824;-71
2020/12/04 10:00:27;;;;;;;37.10;24.30;;;;;;;5.31;69.70;98841.84;126760;1098;27787;-70
2020/12/04 10:02:56;;;;;;;37.90;24.10;;;;;;;5.33;69.56;98852.45;126768;1098;23782;-71
2020/12/04 10:05:24;;;;;;;31.17;18.27;;;;;;;5.34;69.07;98864.13;126783;1098;23411;-70
2020/12/04 10:07:52;;;;;;;31.20;20.23;;;;;;;5.35;69.04;98863.91;126673;1098;24352;-70
2020/12/04 10:10:20;;;;;;;36.10;20.43;;;;;;;5.39;68.90;98870.60;126793;1098;23382;-71
2020/12/04 10:12:49;;;;;;;32.75;19.62;;;;;;;5.46;69.53;98868.81;126871;1099;23409;-69
2020/12/04 10:15:17;;;;;;;34.23;22.70;;;;;;;5.56;69.49;98859.52;126699;1098;26785;-69
2020/12/04 10:17:45;;;;;;;35.80;21.23;;;;;;;5.64;69.18;98853.97;126786;1099;23534;-70
2020/12/04 10:20:13;;;;;;;39.70;21.65;;;;;;;5.73;68.93;98855.48;126782;1098;23329;-71
2020/12/04 10:22:42;;;;;;;38.98;24.77;;;;;;;5.82;68.72;98848.88;126681;1098;26788;-71
2020/12/04 10:25:10;;;;;;;38.85;24.23;;;;;;;5.85;68.88;98840.38;126757;1099;25149;-70
2020/12/04 10:27:38;;;;;;;33.60;20.47;;;;;;;5.88;68.67;98842.67;126723;1099;23374;-70
2020/12/04 10:30:06;;;;;;;39.20;22.27;;;;;;;5.88;68.37;98858.08;126833;1098;27111;-70
2020/12/04 10:32:35;;;;;;;37.67;23.10;;;;;;;5.87;68.38;98857.26;126550;1098;23785;-68
2020/12/04 10:35:03;;;;;;;50.95;28.12;;;;;;;5.87;68.86;98857.26;126594;1098;23382;-69
2020/12/04 10:37:31;;;;;;;51.70;27.65;;;;;;;5.90;68.91;98850.61;126660;1098;26468;-70
2020/12/04 10:40:00;;;;;;;40.00;22.30;;;;;;;5.95;68.86;98858.16;126746;1098;28037;-70
2020/12/04 10:42:28;;;;;;;58.95;33.70;;;;;;;5.96;68.41;98855.27;126684;1098;23398;-69
2020/12/04 10:44:56;;;;;;;46.73;26.33;;;;;;;6.01;68.88;98860.91;126746;1098;24807;-72
2020/12/04 10:47:24;;;;;;;42.60;24.57;;;;;;;6.05;68.52;98861.34;126727;1098;25073;-70
2020/12/04 10:49:53;;;;;;;41.42;22.95;;;;;;;6.07;68.32;98859.28;126742;1098;23813;-70
2020/12/04 10:52:21;;;;;;;58.35;31.82;;;;;;;6.07;68.08;98851.16;126764;1099;23352;-71
2020/12/04 10:54:49;;;;;;;48.33;29.07;;;;;;;6.09;67.92;98847.21;126757;1098;23340;-70
2020/12/04 10:57:17;;;;;;;48.38;27.87;;;;;;;6.14;68.55;98849.31;126910;1098;23407;-71
2020/12/04 10:59:46;;;;;;;56.28;31.30;;;;;;;6.27;68.44;98843.99;126828;1098;23400;-69
2020/12/04 11:02:30;;;;;;;63.65;32.20;;;;;;;6.45;69.22;98843.44;126780;1099;24421;-69
2020/12/04 11:07:45;;;;;;;42.37;24.43;;;;;;;7.35;70.10;98860.34;126852;1098;23449;-69
2020/12/04 11:10:13;;;;;;;63.33;35.00;;;;;;;7.74;69.28;98863.27;126799;1098;23375;-69
2020/12/04 11:12:41;;;;;;;43.02;27.42;;;;;;;7.99;68.37;98855.31;126850;1098;23442;-70
2020/12/04 11:15:10;;;;;;;64.12;33.08;;;;;;;8.08;67.24;98853.20;126838;1098;23423;-70
2020/12/04 11:17:39;;;;;;;72.97;36.63;;;;;;;8.23;67.22;98845.64;126813;1099;23377;-72
2020/12/04 11:20:07;;;;;;;54.45;28.83;;;;;;;8.34;66.72;98846.86;126783;1098;23329;-69
2020/12/04 11:22:36;;;;;;;47.75;27.27;;;;;;;8.40;66.11;98846.02;126704;1098;23382;-70
2020/12/04 11:25:04;;;;;;;57.98;32.60;;;;;;;8.36;65.60;98848.34;126697;1098;23363;-70
2020/12/04 11:27:33;;;;;;;54.58;30.45;;;;;;;8.33;65.08;98837.06;126735;1098;23390;-70
2020/12/04 11:30:01;;;;;;;41.42;24.40;;;;;;;8.31;65.39;98831.83;126717;1098;23396;-70
2020/12/04 11:32:29;;;;;;;43.05;23.62;;;;;;;8.27;64.99;98816.18;126680;1098;26840;-70
2020/12/04 11:34:57;;;;;;;41.92;26.33;;;;;;;8.25;64.24;98823.70;126729;1098;23397;-71